Athena, Oregon
Current Conditions -  °F | °C
As of 6:53 AM on Friday 24 Oct 2014 (Local Time) from KPDT Reporting Station
Overcast Overcast  
Wind Chill:   Ceiling: 6000
Heat Index:   Visibility: 10mi
Dew Point:   Wind: 3mph
Humidity: 90%   Direction: 120°ESE
Pressure: 30.05"   Gusts: NA
Location:  45.81°N, 118.49°W
Report Text: KPDT 241353Z 12003KT 10SM BKN060 OVC100 08/07 A3005 RMK AO2 RAE1258 SLP175 P0000 T00830067
Loading
Personal Weather Stations






























Interactive Weather Map
Tropical Storm Tracking
New forecast layout! Learn more

10-Day Weather Forecast

Advertisements
Track Severe Weather on mobile